Accueil
METAR-TAF:

METAR-TAF

Aéroports :

Aéroport des Abruzzes

Pescara, Italie

latitude: 42-26N, longitude: 014-12E, altitude: 10 m

Observation

Le bulletin a été fait il y a 1 heure et 4 minutes, à 21:50 UTC
Vent 3 kt de sud/sud-ouest
Température 4°C
Humidité 100%
Pression 1023 hPa
Visibilité: 6000 m
Nuages épars à une hauteur de 2000 ft

METAR: LIBP 252150Z 20003KT 6000 SCT020 04/04 Q1023

Heure: 23:54 (22:54 UTC)

Prévision

Le bulletin a été fait il y a 5 heures et 54 minutes, à 17:00 UTC
Prévision valable du 25 à 18 UTC au 26 à 18 UTC
Vent 5 kt de direction variable
Visibilité: 8000 m
Nuages épars à une hauteur de 3000 ft
Temporairement
du 26 à 00 UTC au 26 à 07 UTC
Visibilité: 3000 m
brume

TAF: LIBP 251700Z 2518/2618 VRB05KT 8000 SCT030 TEMPO 2600/2607 3000 BR

Observations et prévisions météorologiques de plus de 4000 aéroports (messages METAR et TAF).

Les stations disponibles sont représentées par des disques jaunes et rouges sur la carte.

Passer la souris dessus pour voir le nom de la station.

Cliquer dessus pour voir les observations et prévisions météorologiques.

Pour changer de carte: cliquez sur les boutons verts avec une croix noire pour zoomer, sur le bouton vert avec un tiret pour effectuer un zoom arrière, ou sur les flèches vertes pour les cartes adjacentes.


METAR-TAF: